Terminal Aerodrome Forecast
Issued by NWS

Home | Current Version | Previous Version | Text Only | Print | Product List | Glossary On
Versions: 1 2 3 4 5 6 7 8 9 10 11 12 13 14 15 16 17 18 19 20 21 22
000
FTUS45 KGGW 251720
TAFOLF
TAF
KOLF 251720Z 2518/2618 26014KT P6SM BKN230
     FM252100 31018G27KT P6SM BKN200
     FM252300 34020G28KT P6SM OVC110
     FM260000 35020G28KT P6SM VCSH BKN070
     FM261200 28007KT P6SM FEW180=

USA.gov is the U.S. government's official web portal to all federal, state and local government web resources and services.